<?xml version='1.0' encoding='UTF-8'?>
<gpx version="1.1" creator="https://www.komoot.de" xmlns="http://www.topografix.com/GPX/1/1" xmlns:xsi="http://www.w3.org/2001/XMLSchema-instance" xsi:schemaLocation="http://www.topografix.com/GPX/1/1 http://www.topografix.com/GPX/1/1/gpx.xsd">
  <metadata>
    <name>Rondwandeling Puertos de Áliva - PR-PNPE 24</name>
    <author>
      <link href="https://www.komoot.de">
        <text>komoot</text>
        <type>text/html</type>
      </link>
    </author>
  </metadata>
  <trk>
    <name>Rondwandeling Puertos de Áliva - PR-PNPE 24</name>
    <trkseg>
      <trkpt lat="43.154347" lon="-4.805914">
        <ele>1839.606875</ele>
        <time>2025-09-03T10:13:37.340Z</time>
      </trkpt>
      <trkpt lat="43.154401" lon="-4.805604">
        <ele>1839.606875</ele>
        <time>2025-09-03T10:14:22.283Z</time>
      </trkpt>
      <trkpt lat="43.154451" lon="-4.805577">
        <ele>1839.606875</ele>
        <time>2025-09-03T10:14:33.110Z</time>
      </trkpt>
      <trkpt lat="43.154686" lon="-4.805602">
        <ele>1839.606875</ele>
        <time>2025-09-03T10:15:20.777Z</time>
      </trkpt>
      <trkpt lat="43.154748" lon="-4.805548">
        <ele>1839.606875</ele>
        <time>2025-09-03T10:15:36.450Z</time>
      </trkpt>
      <trkpt lat="43.154854" lon="-4.805325">
        <ele>1839.606875</ele>
        <time>2025-09-03T10:16:18.641Z</time>
      </trkpt>
      <trkpt lat="43.154954" lon="-4.805282">
        <ele>1839.606875</ele>
        <time>2025-09-03T10:16:42.382Z</time>
      </trkpt>
      <trkpt lat="43.155006" lon="-4.805320">
        <ele>1840.387415</ele>
        <time>2025-09-03T10:16:56.114Z</time>
      </trkpt>
      <trkpt lat="43.155589" lon="-4.805973">
        <ele>1851.272213</ele>
        <time>2025-09-03T10:19:37.522Z</time>
      </trkpt>
      <trkpt lat="43.155690" lon="-4.806041">
        <ele>1852.899062</ele>
        <time>2025-09-03T10:19:54.244Z</time>
      </trkpt>
      <trkpt lat="43.155756" lon="-4.806043">
        <ele>1853.853507</ele>
        <time>2025-09-03T10:20:03.215Z</time>
      </trkpt>
      <trkpt lat="43.155811" lon="-4.806008">
        <ele>1854.730188</ele>
        <time>2025-09-03T10:20:11.337Z</time>
      </trkpt>
      <trkpt lat="43.155962" lon="-4.805743">
        <ele>1858.276676</ele>
        <time>2025-09-03T10:20:42.983Z</time>
      </trkpt>
      <trkpt lat="43.156031" lon="-4.805691">
        <ele>1859.415077</ele>
        <time>2025-09-03T10:20:53.003Z</time>
      </trkpt>
      <trkpt lat="43.156155" lon="-4.805713">
        <ele>1861.222790</ele>
        <time>2025-09-03T10:21:08.489Z</time>
      </trkpt>
      <trkpt lat="43.156317" lon="-4.806047">
        <ele>1865.452993</ele>
        <time>2025-09-03T10:21:43.954Z</time>
      </trkpt>
      <trkpt lat="43.156496" lon="-4.806206">
        <ele>1866.399804</ele>
        <time>2025-09-03T10:22:09.091Z</time>
      </trkpt>
      <trkpt lat="43.156743" lon="-4.806828">
        <ele>1868.413148</ele>
        <time>2025-09-03T10:23:04.445Z</time>
      </trkpt>
      <trkpt lat="43.157213" lon="-4.807648">
        <ele>1871.377870</ele>
        <time>2025-09-03T10:24:28.096Z</time>
      </trkpt>
      <trkpt lat="43.157294" lon="-4.807720">
        <ele>1871.754097</ele>
        <time>2025-09-03T10:24:39.556Z</time>
      </trkpt>
      <trkpt lat="43.157494" lon="-4.807726">
        <ele>1872.533723</ele>
        <time>2025-09-03T10:25:03.361Z</time>
      </trkpt>
      <trkpt lat="43.157738" lon="-4.807867">
        <ele>1873.550849</ele>
        <time>2025-09-03T10:25:35.143Z</time>
      </trkpt>
      <trkpt lat="43.158145" lon="-4.807933">
        <ele>1875.123006</ele>
        <time>2025-09-03T10:26:23.732Z</time>
      </trkpt>
      <trkpt lat="43.158268" lon="-4.808015">
        <ele>1875.647676</ele>
        <time>2025-09-03T10:26:39.614Z</time>
      </trkpt>
      <trkpt lat="43.158426" lon="-4.808058">
        <ele>1876.265600</ele>
        <time>2025-09-03T10:26:58.118Z</time>
      </trkpt>
      <trkpt lat="43.158482" lon="-4.808105">
        <ele>1876.517481</ele>
        <time>2025-09-03T10:27:05.479Z</time>
      </trkpt>
      <trkpt lat="43.158589" lon="-4.808338">
        <ele>1877.287917</ele>
        <time>2025-09-03T10:27:27.700Z</time>
      </trkpt>
      <trkpt lat="43.158904" lon="-4.808675">
        <ele>1878.820689</ele>
        <time>2025-09-03T10:28:10.048Z</time>
      </trkpt>
      <trkpt lat="43.159162" lon="-4.809021">
        <ele>1881.534102</ele>
        <time>2025-09-03T10:28:48.181Z</time>
      </trkpt>
      <trkpt lat="43.159351" lon="-4.809195">
        <ele>1884.102513</ele>
        <time>2025-09-03T10:29:13.856Z</time>
      </trkpt>
      <trkpt lat="43.159507" lon="-4.809285">
        <ele>1886.011936</ele>
        <time>2025-09-03T10:29:34.151Z</time>
      </trkpt>
      <trkpt lat="43.159533" lon="-4.809298">
        <ele>1886.324157</ele>
        <time>2025-09-03T10:29:37.472Z</time>
      </trkpt>
      <trkpt lat="43.159822" lon="-4.809487">
        <ele>1889.936518</ele>
        <time>2025-09-03T10:30:18.955Z</time>
      </trkpt>
      <trkpt lat="43.159970" lon="-4.809512">
        <ele>1891.618819</ele>
        <time>2025-09-03T10:30:40.299Z</time>
      </trkpt>
      <trkpt lat="43.160026" lon="-4.809475">
        <ele>1892.320133</ele>
        <time>2025-09-03T10:30:49.845Z</time>
      </trkpt>
      <trkpt lat="43.160106" lon="-4.809311">
        <ele>1893.943705</ele>
        <time>2025-09-03T10:31:13.497Z</time>
      </trkpt>
      <trkpt lat="43.160277" lon="-4.808493">
        <ele>1901.072250</ele>
        <time>2025-09-03T10:33:13.424Z</time>
      </trkpt>
      <trkpt lat="43.160277" lon="-4.808188">
        <ele>1903.861058</ele>
        <time>2025-09-03T10:34:02.600Z</time>
      </trkpt>
      <trkpt lat="43.160344" lon="-4.807794">
        <ele>1907.560246</ele>
        <time>2025-09-03T10:35:05.924Z</time>
      </trkpt>
      <trkpt lat="43.160472" lon="-4.806691">
        <ele>1917.772482</ele>
        <time>2025-09-03T10:37:20.163Z</time>
      </trkpt>
      <trkpt lat="43.160539" lon="-4.806581">
        <ele>1919.082815</ele>
        <time>2025-09-03T10:37:32.447Z</time>
      </trkpt>
      <trkpt lat="43.160582" lon="-4.806480">
        <ele>1920.152108</ele>
        <time>2025-09-03T10:37:41.770Z</time>
      </trkpt>
      <trkpt lat="43.160630" lon="-4.806030">
        <ele>1920.147388</ele>
        <time>2025-09-03T10:38:17.074Z</time>
      </trkpt>
      <trkpt lat="43.160693" lon="-4.805931">
        <ele>1918.787006</ele>
        <time>2025-09-03T10:38:28.333Z</time>
      </trkpt>
      <trkpt lat="43.160740" lon="-4.805918">
        <ele>1918.106379</ele>
        <time>2025-09-03T10:38:34.119Z</time>
      </trkpt>
      <trkpt lat="43.160782" lon="-4.805907">
        <ele>1917.499391</ele>
        <time>2025-09-03T10:38:39.324Z</time>
      </trkpt>
      <trkpt lat="43.160951" lon="-4.805829">
        <ele>1914.968066</ele>
        <time>2025-09-03T10:39:01.786Z</time>
      </trkpt>
      <trkpt lat="43.161139" lon="-4.805676">
        <ele>1911.864524</ele>
        <time>2025-09-03T10:39:30.714Z</time>
      </trkpt>
      <trkpt lat="43.161634" lon="-4.805026">
        <ele>1902.134491</ele>
        <time>2025-09-03T10:41:10.812Z</time>
      </trkpt>
      <trkpt lat="43.161872" lon="-4.804774">
        <ele>1897.865670</ele>
        <time>2025-09-03T10:41:54.806Z</time>
      </trkpt>
      <trkpt lat="43.162075" lon="-4.804621">
        <ele>1894.763793</ele>
        <time>2025-09-03T10:42:27.492Z</time>
      </trkpt>
      <trkpt lat="43.162482" lon="-4.804418">
        <ele>1889.125857</ele>
        <time>2025-09-03T10:43:24.110Z</time>
      </trkpt>
      <trkpt lat="43.162991" lon="-4.803981">
        <ele>1881.307826</ele>
        <time>2025-09-03T10:44:37.106Z</time>
      </trkpt>
      <trkpt lat="43.163200" lon="-4.803764">
        <ele>1877.894957</ele>
        <time>2025-09-03T10:45:08.207Z</time>
      </trkpt>
      <trkpt lat="43.163583" lon="-4.803263">
        <ele>1871.453061</ele>
        <time>2025-09-03T10:46:11.764Z</time>
      </trkpt>
      <trkpt lat="43.163907" lon="-4.803070">
        <ele>1867.712403</ele>
        <time>2025-09-03T10:46:54.506Z</time>
      </trkpt>
      <trkpt lat="43.163956" lon="-4.802815">
        <ele>1865.675696</ele>
        <time>2025-09-03T10:47:17.694Z</time>
      </trkpt>
      <trkpt lat="43.164004" lon="-4.802684">
        <ele>1864.543420</ele>
        <time>2025-09-03T10:47:30.553Z</time>
      </trkpt>
      <trkpt lat="43.164071" lon="-4.802553">
        <ele>1863.307686</ele>
        <time>2025-09-03T10:47:44.555Z</time>
      </trkpt>
      <trkpt lat="43.164280" lon="-4.802289">
        <ele>1860.298480</ele>
        <time>2025-09-03T10:48:18.602Z</time>
      </trkpt>
      <trkpt lat="43.164716" lon="-4.801845">
        <ele>1854.547461</ele>
        <time>2025-09-03T10:49:24.376Z</time>
      </trkpt>
      <trkpt lat="43.164978" lon="-4.801639">
        <ele>1851.356695</ele>
        <time>2025-09-03T10:50:01.411Z</time>
      </trkpt>
      <trkpt lat="43.165170" lon="-4.801287">
        <ele>1847.970234</ele>
        <time>2025-09-03T10:50:41.365Z</time>
      </trkpt>
      <trkpt lat="43.165427" lon="-4.801148">
        <ele>1845.051932</ele>
        <time>2025-09-03T10:51:15.410Z</time>
      </trkpt>
      <trkpt lat="43.165480" lon="-4.801094">
        <ele>1844.354427</ele>
        <time>2025-09-03T10:51:23.392Z</time>
      </trkpt>
      <trkpt lat="43.165401" lon="-4.800102">
        <ele>1836.666158</ele>
        <time>2025-09-03T10:52:49.347Z</time>
      </trkpt>
      <trkpt lat="43.165377" lon="-4.799990">
        <ele>1835.766786</ele>
        <time>2025-09-03T10:52:59.456Z</time>
      </trkpt>
      <trkpt lat="43.165419" lon="-4.799914">
        <ele>1834.952713</ele>
        <time>2025-09-03T10:53:07.591Z</time>
      </trkpt>
      <trkpt lat="43.165480" lon="-4.799871">
        <ele>1834.056196</ele>
        <time>2025-09-03T10:53:15.786Z</time>
      </trkpt>
      <trkpt lat="43.165601" lon="-4.799992">
        <ele>1832.098665</ele>
        <time>2025-09-03T10:53:33.630Z</time>
      </trkpt>
      <trkpt lat="43.165673" lon="-4.800170">
        <ele>1830.158238</ele>
        <time>2025-09-03T10:53:51.379Z</time>
      </trkpt>
      <trkpt lat="43.165773" lon="-4.800297">
        <ele>1828.376585</ele>
        <time>2025-09-03T10:54:07.782Z</time>
      </trkpt>
      <trkpt lat="43.165982" lon="-4.800471">
        <ele>1825.180637</ele>
        <time>2025-09-03T10:54:37.608Z</time>
      </trkpt>
      <trkpt lat="43.166152" lon="-4.800685">
        <ele>1822.164114</ele>
        <time>2025-09-03T10:55:05.965Z</time>
      </trkpt>
      <trkpt lat="43.166273" lon="-4.800912">
        <ele>1819.483736</ele>
        <time>2025-09-03T10:55:31.522Z</time>
      </trkpt>
      <trkpt lat="43.166345" lon="-4.800980">
        <ele>1818.340985</ele>
        <time>2025-09-03T10:55:42.589Z</time>
      </trkpt>
      <trkpt lat="43.166594" lon="-4.801072">
        <ele>1814.970307</ele>
        <time>2025-09-03T10:56:16.396Z</time>
      </trkpt>
      <trkpt lat="43.166908" lon="-4.801238">
        <ele>1810.045192</ele>
        <time>2025-09-03T10:57:02.766Z</time>
      </trkpt>
      <trkpt lat="43.167027" lon="-4.801068">
        <ele>1806.879336</ele>
        <time>2025-09-03T10:57:27.138Z</time>
      </trkpt>
      <trkpt lat="43.167121" lon="-4.800863">
        <ele>1803.625883</ele>
        <time>2025-09-03T10:57:52.717Z</time>
      </trkpt>
      <trkpt lat="43.167189" lon="-4.800467">
        <ele>1798.159811</ele>
        <time>2025-09-03T10:58:35.976Z</time>
      </trkpt>
      <trkpt lat="43.167319" lon="-4.800063">
        <ele>1792.226933</ele>
        <time>2025-09-03T10:59:22.544Z</time>
      </trkpt>
      <trkpt lat="43.167569" lon="-4.799793">
        <ele>1786.364404</ele>
        <time>2025-09-03T11:00:07.131Z</time>
      </trkpt>
      <trkpt lat="43.167776" lon="-4.799511">
        <ele>1780.988870</ele>
        <time>2025-09-03T11:00:46.560Z</time>
      </trkpt>
      <trkpt lat="43.167906" lon="-4.799376">
        <ele>1778.183564</ele>
        <time>2025-09-03T11:01:08.203Z</time>
      </trkpt>
      <trkpt lat="43.168194" lon="-4.799149">
        <ele>1773.710094</ele>
        <time>2025-09-03T11:01:51.829Z</time>
      </trkpt>
      <trkpt lat="43.168347" lon="-4.799076">
        <ele>1771.528562</ele>
        <time>2025-09-03T11:02:12.863Z</time>
      </trkpt>
      <trkpt lat="43.168960" lon="-4.798924">
        <ele>1763.139808</ele>
        <time>2025-09-03T11:03:32.488Z</time>
      </trkpt>
      <trkpt lat="43.169197" lon="-4.798904">
        <ele>1759.942253</ele>
        <time>2025-09-03T11:04:01.766Z</time>
      </trkpt>
      <trkpt lat="43.169411" lon="-4.798783">
        <ele>1756.825043</ele>
        <time>2025-09-03T11:04:30.135Z</time>
      </trkpt>
      <trkpt lat="43.169542" lon="-4.798750">
        <ele>1755.031430</ele>
        <time>2025-09-03T11:04:46.024Z</time>
      </trkpt>
      <trkpt lat="43.169751" lon="-4.798786">
        <ele>1753.518785</ele>
        <time>2025-09-03T11:05:10.880Z</time>
      </trkpt>
      <trkpt lat="43.169909" lon="-4.798935">
        <ele>1752.417731</ele>
        <time>2025-09-03T11:05:32.684Z</time>
      </trkpt>
      <trkpt lat="43.169985" lon="-4.798957">
        <ele>1751.971740</ele>
        <time>2025-09-03T11:05:41.338Z</time>
      </trkpt>
      <trkpt lat="43.170212" lon="-4.798887">
        <ele>1750.635810</ele>
        <time>2025-09-03T11:06:06.408Z</time>
      </trkpt>
      <trkpt lat="43.170232" lon="-4.798832">
        <ele>1750.378452</ele>
        <time>2025-09-03T11:06:11.088Z</time>
      </trkpt>
      <trkpt lat="43.170196" lon="-4.798772">
        <ele>1750.053098</ele>
        <time>2025-09-03T11:06:17.170Z</time>
      </trkpt>
      <trkpt lat="43.170030" lon="-4.798711">
        <ele>1749.066333</ele>
        <time>2025-09-03T11:06:35.422Z</time>
      </trkpt>
      <trkpt lat="43.169781" lon="-4.798559">
        <ele>1747.501349</ele>
        <time>2025-09-03T11:07:04.856Z</time>
      </trkpt>
      <trkpt lat="43.169464" lon="-4.798430">
        <ele>1745.602746</ele>
        <time>2025-09-03T11:07:41.091Z</time>
      </trkpt>
      <trkpt lat="43.169280" lon="-4.798395">
        <ele>1744.536148</ele>
        <time>2025-09-03T11:08:01.715Z</time>
      </trkpt>
      <trkpt lat="43.169212" lon="-4.798334">
        <ele>1744.099305</ele>
        <time>2025-09-03T11:08:10.842Z</time>
      </trkpt>
      <trkpt lat="43.169203" lon="-4.798257">
        <ele>1743.864370</ele>
        <time>2025-09-03T11:08:17.253Z</time>
      </trkpt>
      <trkpt lat="43.169323" lon="-4.798047">
        <ele>1743.060654</ele>
        <time>2025-09-03T11:08:39.185Z</time>
      </trkpt>
      <trkpt lat="43.169406" lon="-4.797966">
        <ele>1742.639831</ele>
        <time>2025-09-03T11:08:50.901Z</time>
      </trkpt>
      <trkpt lat="43.169453" lon="-4.797888">
        <ele>1742.335020</ele>
        <time>2025-09-03T11:08:59.064Z</time>
      </trkpt>
      <trkpt lat="43.169487" lon="-4.797832">
        <ele>1742.115505</ele>
        <time>2025-09-03T11:09:05.405Z</time>
      </trkpt>
      <trkpt lat="43.169488" lon="-4.797705">
        <ele>1741.732876</ele>
        <time>2025-09-03T11:09:15.673Z</time>
      </trkpt>
      <trkpt lat="43.169437" lon="-4.797306">
        <ele>1740.512508</ele>
        <time>2025-09-03T11:09:48.510Z</time>
      </trkpt>
      <trkpt lat="43.169294" lon="-4.796958">
        <ele>1739.309154</ele>
        <time>2025-09-03T11:10:20.516Z</time>
      </trkpt>
      <trkpt lat="43.169206" lon="-4.796806">
        <ele>1738.724494</ele>
        <time>2025-09-03T11:10:35.783Z</time>
      </trkpt>
      <trkpt lat="43.169122" lon="-4.796731">
        <ele>1738.310432</ele>
        <time>2025-09-03T11:10:46.286Z</time>
      </trkpt>
      <trkpt lat="43.169028" lon="-4.796727">
        <ele>1737.921960</ele>
        <time>2025-09-03T11:10:55.956Z</time>
      </trkpt>
      <trkpt lat="43.169122" lon="-4.796731">
        <ele>1737.533489</ele>
        <time>2025-09-03T11:11:05.880Z</time>
      </trkpt>
      <trkpt lat="43.169206" lon="-4.796806">
        <ele>1737.119427</ele>
        <time>2025-09-03T11:11:15.960Z</time>
      </trkpt>
      <trkpt lat="43.169294" lon="-4.796958">
        <ele>1736.688000</ele>
        <time>2025-09-03T11:11:30.401Z</time>
      </trkpt>
      <trkpt lat="43.169437" lon="-4.797306">
        <ele>1736.357966</ele>
        <time>2025-09-03T11:12:00.032Z</time>
      </trkpt>
      <trkpt lat="43.169488" lon="-4.797705">
        <ele>1736.023266</ele>
        <time>2025-09-03T11:12:30.354Z</time>
      </trkpt>
      <trkpt lat="43.169487" lon="-4.797832">
        <ele>1735.918326</ele>
        <time>2025-09-03T11:12:39.997Z</time>
      </trkpt>
      <trkpt lat="43.169453" lon="-4.797888">
        <ele>1735.858121</ele>
        <time>2025-09-03T11:12:46.094Z</time>
      </trkpt>
      <trkpt lat="43.169487" lon="-4.797832">
        <ele>1735.797917</ele>
        <time>2025-09-03T11:12:51.578Z</time>
      </trkpt>
      <trkpt lat="43.169488" lon="-4.797705">
        <ele>1735.692976</ele>
        <time>2025-09-03T11:13:01.756Z</time>
      </trkpt>
      <trkpt lat="43.169437" lon="-4.797306">
        <ele>1735.358276</ele>
        <time>2025-09-03T11:13:34.253Z</time>
      </trkpt>
      <trkpt lat="43.169294" lon="-4.796958">
        <ele>1735.028242</ele>
        <time>2025-09-03T11:14:03.462Z</time>
      </trkpt>
      <trkpt lat="43.169206" lon="-4.796806">
        <ele>1734.867893</ele>
        <time>2025-09-03T11:14:18.473Z</time>
      </trkpt>
      <trkpt lat="43.169122" lon="-4.796731">
        <ele>1734.754331</ele>
        <time>2025-09-03T11:14:29.522Z</time>
      </trkpt>
      <trkpt lat="43.169028" lon="-4.796727">
        <ele>1734.338516</ele>
        <time>2025-09-03T11:14:39.768Z</time>
      </trkpt>
      <trkpt lat="43.168567" lon="-4.796709">
        <ele>1731.143228</ele>
        <time>2025-09-03T11:15:32.811Z</time>
      </trkpt>
      <trkpt lat="43.168434" lon="-4.796521">
        <ele>1729.819739</ele>
        <time>2025-09-03T11:15:54.802Z</time>
      </trkpt>
      <trkpt lat="43.168366" lon="-4.796113">
        <ele>1727.704887</ele>
        <time>2025-09-03T11:16:29.478Z</time>
      </trkpt>
      <trkpt lat="43.168314" lon="-4.795910">
        <ele>1726.617657</ele>
        <time>2025-09-03T11:16:46.850Z</time>
      </trkpt>
      <trkpt lat="43.168253" lon="-4.795796">
        <ele>1725.903185</ele>
        <time>2025-09-03T11:16:58.314Z</time>
      </trkpt>
      <trkpt lat="43.168243" lon="-4.795714">
        <ele>1725.483069</ele>
        <time>2025-09-03T11:17:05.368Z</time>
      </trkpt>
      <trkpt lat="43.168371" lon="-4.795225">
        <ele>1722.857727</ele>
        <time>2025-09-03T11:17:50.286Z</time>
      </trkpt>
      <trkpt lat="43.168356" lon="-4.795086">
        <ele>1722.131604</ele>
        <time>2025-09-03T11:18:02.678Z</time>
      </trkpt>
      <trkpt lat="43.168288" lon="-4.794992">
        <ele>1721.353727</ele>
        <time>2025-09-03T11:18:14.333Z</time>
      </trkpt>
      <trkpt lat="43.168000" lon="-4.794822">
        <ele>1718.827816</ele>
        <time>2025-09-03T11:18:51.624Z</time>
      </trkpt>
      <trkpt lat="43.167946" lon="-4.794733">
        <ele>1718.147617</ele>
        <time>2025-09-03T11:19:01.577Z</time>
      </trkpt>
      <trkpt lat="43.167798" lon="-4.794281">
        <ele>1715.236573</ele>
        <time>2025-09-03T11:19:43.537Z</time>
      </trkpt>
      <trkpt lat="43.167818" lon="-4.794089">
        <ele>1714.097040</ele>
        <time>2025-09-03T11:19:59.830Z</time>
      </trkpt>
      <trkpt lat="43.167982" lon="-4.793417">
        <ele>1709.933577</ele>
        <time>2025-09-03T11:20:59.351Z</time>
      </trkpt>
      <trkpt lat="43.168039" lon="-4.792823">
        <ele>1706.128857</ele>
        <time>2025-09-03T11:21:49.026Z</time>
      </trkpt>
      <trkpt lat="43.168022" lon="-4.792573">
        <ele>1704.341129</ele>
        <time>2025-09-03T11:22:09.752Z</time>
      </trkpt>
      <trkpt lat="43.168212" lon="-4.791940">
        <ele>1699.467409</ele>
        <time>2025-09-03T11:23:07.641Z</time>
      </trkpt>
      <trkpt lat="43.168203" lon="-4.791353">
        <ele>1695.287038</ele>
        <time>2025-09-03T11:23:59.681Z</time>
      </trkpt>
      <trkpt lat="43.168143" lon="-4.790713">
        <ele>1690.692737</ele>
        <time>2025-09-03T11:24:58.104Z</time>
      </trkpt>
      <trkpt lat="43.168153" lon="-4.790180">
        <ele>1686.299502</ele>
        <time>2025-09-03T11:25:46.327Z</time>
      </trkpt>
      <trkpt lat="43.168218" lon="-4.789722">
        <ele>1682.376733</ele>
        <time>2025-09-03T11:26:29.030Z</time>
      </trkpt>
      <trkpt lat="43.168219" lon="-4.789355">
        <ele>1679.291231</ele>
        <time>2025-09-03T11:27:02.466Z</time>
      </trkpt>
      <trkpt lat="43.168194" lon="-4.789237">
        <ele>1678.258160</ele>
        <time>2025-09-03T11:27:13.422Z</time>
      </trkpt>
      <trkpt lat="43.168030" lon="-4.788913">
        <ele>1674.942466</ele>
        <time>2025-09-03T11:27:48.777Z</time>
      </trkpt>
      <trkpt lat="43.167946" lon="-4.788586">
        <ele>1672.027733</ele>
        <time>2025-09-03T11:28:19.078Z</time>
      </trkpt>
      <trkpt lat="43.167800" lon="-4.788222">
        <ele>1668.706636</ele>
        <time>2025-09-03T11:28:54.753Z</time>
      </trkpt>
      <trkpt lat="43.167765" lon="-4.788051">
        <ele>1667.488632</ele>
        <time>2025-09-03T11:29:10.026Z</time>
      </trkpt>
      <trkpt lat="43.167759" lon="-4.787891">
        <ele>1666.389916</ele>
        <time>2025-09-03T11:29:23.707Z</time>
      </trkpt>
      <trkpt lat="43.167818" lon="-4.787538">
        <ele>1663.906323</ele>
        <time>2025-09-03T11:29:55.181Z</time>
      </trkpt>
      <trkpt lat="43.167835" lon="-4.787441">
        <ele>1663.222171</ele>
        <time>2025-09-03T11:30:03.871Z</time>
      </trkpt>
      <trkpt lat="43.168082" lon="-4.787070">
        <ele>1659.777286</ele>
        <time>2025-09-03T11:30:48.637Z</time>
      </trkpt>
      <trkpt lat="43.168191" lon="-4.786865">
        <ele>1658.037497</ele>
        <time>2025-09-03T11:31:10.818Z</time>
      </trkpt>
      <trkpt lat="43.168317" lon="-4.786577">
        <ele>1655.734349</ele>
        <time>2025-09-03T11:31:39.843Z</time>
      </trkpt>
      <trkpt lat="43.168350" lon="-4.786457">
        <ele>1654.854854</ele>
        <time>2025-09-03T11:31:51.021Z</time>
      </trkpt>
      <trkpt lat="43.168354" lon="-4.786340">
        <ele>1654.051605</ele>
        <time>2025-09-03T11:32:01.201Z</time>
      </trkpt>
      <trkpt lat="43.168354" lon="-4.786340">
        <ele>1654.051605</ele>
        <time>2025-09-03T11:32:01.209Z</time>
      </trkpt>
      <trkpt lat="43.168330" lon="-4.786240">
        <ele>1653.329645</ele>
        <time>2025-09-03T11:32:10.288Z</time>
      </trkpt>
      <trkpt lat="43.168190" lon="-4.785957">
        <ele>1651.591319</ele>
        <time>2025-09-03T11:32:39.816Z</time>
      </trkpt>
      <trkpt lat="43.167976" lon="-4.786117">
        <ele>1650.185946</ele>
        <time>2025-09-03T11:33:06.568Z</time>
      </trkpt>
      <trkpt lat="43.167781" lon="-4.786479">
        <ele>1648.293496</ele>
        <time>2025-09-03T11:33:40.947Z</time>
      </trkpt>
      <trkpt lat="43.167601" lon="-4.786613">
        <ele>1647.112570</ele>
        <time>2025-09-03T11:34:02.996Z</time>
      </trkpt>
      <trkpt lat="43.167409" lon="-4.786868">
        <ele>1645.571357</ele>
        <time>2025-09-03T11:34:31.909Z</time>
      </trkpt>
      <trkpt lat="43.167215" lon="-4.787088">
        <ele>1644.119801</ele>
        <time>2025-09-03T11:34:58.935Z</time>
      </trkpt>
      <trkpt lat="43.167093" lon="-4.787155">
        <ele>1643.362064</ele>
        <time>2025-09-03T11:35:13.679Z</time>
      </trkpt>
      <trkpt lat="43.166930" lon="-4.787198">
        <ele>1642.405027</ele>
        <time>2025-09-03T11:35:32.849Z</time>
      </trkpt>
      <trkpt lat="43.166724" lon="-4.787202">
        <ele>1640.161241</ele>
        <time>2025-09-03T11:35:57.312Z</time>
      </trkpt>
      <trkpt lat="43.166501" lon="-4.787186">
        <ele>1637.465897</ele>
        <time>2025-09-03T11:36:23.677Z</time>
      </trkpt>
      <trkpt lat="43.166319" lon="-4.787134">
        <ele>1635.221923</ele>
        <time>2025-09-03T11:36:45.815Z</time>
      </trkpt>
      <trkpt lat="43.166082" lon="-4.786920">
        <ele>1631.796620</ele>
        <time>2025-09-03T11:37:21.185Z</time>
      </trkpt>
      <trkpt lat="43.165980" lon="-4.786693">
        <ele>1629.449380</ele>
        <time>2025-09-03T11:37:46.815Z</time>
      </trkpt>
      <trkpt lat="43.165980" lon="-4.786397">
        <ele>1626.843478</ele>
        <time>2025-09-03T11:38:15.017Z</time>
      </trkpt>
      <trkpt lat="43.166134" lon="-4.785571">
        <ele>1619.477346</ele>
        <time>2025-09-03T11:39:33.932Z</time>
      </trkpt>
      <trkpt lat="43.166174" lon="-4.785177">
        <ele>1616.405813</ele>
        <time>2025-09-03T11:40:09.980Z</time>
      </trkpt>
      <trkpt lat="43.166289" lon="-4.783092">
        <ele>1600.682396</ele>
        <time>2025-09-03T11:43:12.379Z</time>
      </trkpt>
      <trkpt lat="43.166454" lon="-4.782517">
        <ele>1597.628665</ele>
        <time>2025-09-03T11:44:04.207Z</time>
      </trkpt>
      <trkpt lat="43.166485" lon="-4.782321">
        <ele>1596.637501</ele>
        <time>2025-09-03T11:44:20.884Z</time>
      </trkpt>
      <trkpt lat="43.166481" lon="-4.782211">
        <ele>1596.093196</ele>
        <time>2025-09-03T11:44:29.974Z</time>
      </trkpt>
      <trkpt lat="43.166477" lon="-4.782100">
        <ele>1595.543954</ele>
        <time>2025-09-03T11:44:39.067Z</time>
      </trkpt>
      <trkpt lat="43.166547" lon="-4.781289">
        <ele>1591.507951</ele>
        <time>2025-09-03T11:45:45.273Z</time>
      </trkpt>
      <trkpt lat="43.166612" lon="-4.780752">
        <ele>1588.826534</ele>
        <time>2025-09-03T11:46:29.720Z</time>
      </trkpt>
      <trkpt lat="43.166727" lon="-4.780232">
        <ele>1586.196362</ele>
        <time>2025-09-03T11:47:13.980Z</time>
      </trkpt>
      <trkpt lat="43.166754" lon="-4.779989">
        <ele>1585.006574</ele>
        <time>2025-09-03T11:47:33.981Z</time>
      </trkpt>
      <trkpt lat="43.166738" lon="-4.779761">
        <ele>1583.897866</ele>
        <time>2025-09-03T11:47:52.701Z</time>
      </trkpt>
      <trkpt lat="43.166638" lon="-4.779504">
        <ele>1582.487930</ele>
        <time>2025-09-03T11:48:16.606Z</time>
      </trkpt>
      <trkpt lat="43.166384" lon="-4.779150">
        <ele>1580.084275</ele>
        <time>2025-09-03T11:48:57.743Z</time>
      </trkpt>
      <trkpt lat="43.165998" lon="-4.778419">
        <ele>1575.250746</ele>
        <time>2025-09-03T11:50:14.081Z</time>
      </trkpt>
      <trkpt lat="43.165808" lon="-4.777698">
        <ele>1570.455623</ele>
        <time>2025-09-03T11:51:20.123Z</time>
      </trkpt>
      <trkpt lat="43.165580" lon="-4.777021">
        <ele>1565.791411</ele>
        <time>2025-09-03T11:52:24.755Z</time>
      </trkpt>
      <trkpt lat="43.165242" lon="-4.775132">
        <ele>1555.616153</ele>
        <time>2025-09-03T11:55:08.915Z</time>
      </trkpt>
      <trkpt lat="43.165041" lon="-4.774437">
        <ele>1552.067023</ele>
        <time>2025-09-03T11:56:08.872Z</time>
      </trkpt>
      <trkpt lat="43.165017" lon="-4.774152">
        <ele>1550.705107</ele>
        <time>2025-09-03T11:56:31.717Z</time>
      </trkpt>
      <trkpt lat="43.165093" lon="-4.773917">
        <ele>1549.296533</ele>
        <time>2025-09-03T11:56:52.209Z</time>
      </trkpt>
      <trkpt lat="43.165160" lon="-4.773707">
        <ele>1547.912549</ele>
        <time>2025-09-03T11:57:10.504Z</time>
      </trkpt>
      <trkpt lat="43.165127" lon="-4.773364">
        <ele>1545.823569</ele>
        <time>2025-09-03T11:57:38.411Z</time>
      </trkpt>
      <trkpt lat="43.165133" lon="-4.773143">
        <ele>1544.488242</ele>
        <time>2025-09-03T11:57:56.499Z</time>
      </trkpt>
      <trkpt lat="43.165283" lon="-4.772636">
        <ele>1541.184714</ele>
        <time>2025-09-03T11:58:42.586Z</time>
      </trkpt>
      <trkpt lat="43.165309" lon="-4.772143">
        <ele>1538.200207</ele>
        <time>2025-09-03T11:59:26.153Z</time>
      </trkpt>
      <trkpt lat="43.165260" lon="-4.771683">
        <ele>1535.393260</ele>
        <time>2025-09-03T12:00:07.996Z</time>
      </trkpt>
      <trkpt lat="43.165163" lon="-4.771319">
        <ele>1531.657679</ele>
        <time>2025-09-03T12:00:43.237Z</time>
      </trkpt>
      <trkpt lat="43.165081" lon="-4.771144">
        <ele>1529.617223</ele>
        <time>2025-09-03T12:01:02.188Z</time>
      </trkpt>
      <trkpt lat="43.164880" lon="-4.770844">
        <ele>1525.621075</ele>
        <time>2025-09-03T12:01:39.611Z</time>
      </trkpt>
      <trkpt lat="43.164695" lon="-4.770657">
        <ele>1522.529768</ele>
        <time>2025-09-03T12:02:08.705Z</time>
      </trkpt>
      <trkpt lat="43.164076" lon="-4.769873">
        <ele>1511.195664</ele>
        <time>2025-09-03T12:03:55.677Z</time>
      </trkpt>
      <trkpt lat="43.163884" lon="-4.769528">
        <ele>1506.653759</ele>
        <time>2025-09-03T12:04:36.050Z</time>
      </trkpt>
      <trkpt lat="43.163487" lon="-4.768954">
        <ele>1498.362224</ele>
        <time>2025-09-03T12:05:50.451Z</time>
      </trkpt>
      <trkpt lat="43.163397" lon="-4.768752">
        <ele>1495.881078</ele>
        <time>2025-09-03T12:06:12.679Z</time>
      </trkpt>
      <trkpt lat="43.163410" lon="-4.768580">
        <ele>1494.068506</ele>
        <time>2025-09-03T12:06:28.924Z</time>
      </trkpt>
      <trkpt lat="43.163450" lon="-4.768423">
        <ele>1492.325316</ele>
        <time>2025-09-03T12:06:44.609Z</time>
      </trkpt>
      <trkpt lat="43.163652" lon="-4.767904">
        <ele>1486.159086</ele>
        <time>2025-09-03T12:07:39.327Z</time>
      </trkpt>
      <trkpt lat="43.163510" lon="-4.767636">
        <ele>1483.679522</ele>
        <time>2025-09-03T12:08:09.774Z</time>
      </trkpt>
      <trkpt lat="43.163464" lon="-4.767580">
        <ele>1483.137986</ele>
        <time>2025-09-03T12:08:17.483Z</time>
      </trkpt>
      <trkpt lat="43.163255" lon="-4.767318">
        <ele>1480.645011</ele>
        <time>2025-09-03T12:08:52.444Z</time>
      </trkpt>
      <trkpt lat="43.162921" lon="-4.767052">
        <ele>1477.244757</ele>
        <time>2025-09-03T12:09:38.678Z</time>
      </trkpt>
      <trkpt lat="43.162825" lon="-4.767018">
        <ele>1476.371936</ele>
        <time>2025-09-03T12:09:50.235Z</time>
      </trkpt>
      <trkpt lat="43.162436" lon="-4.767117">
        <ele>1472.889106</ele>
        <time>2025-09-03T12:10:35.401Z</time>
      </trkpt>
      <trkpt lat="43.162295" lon="-4.767098">
        <ele>1471.641916</ele>
        <time>2025-09-03T12:10:51.078Z</time>
      </trkpt>
      <trkpt lat="43.162020" lon="-4.767008">
        <ele>1469.294634</ele>
        <time>2025-09-03T12:11:21.833Z</time>
      </trkpt>
      <trkpt lat="43.161414" lon="-4.766736">
        <ele>1466.708600</ele>
        <time>2025-09-03T12:12:29.440Z</time>
      </trkpt>
      <trkpt lat="43.161190" lon="-4.766622">
        <ele>1465.739579</ele>
        <time>2025-09-03T12:12:54.400Z</time>
      </trkpt>
      <trkpt lat="43.161088" lon="-4.766609">
        <ele>1465.324128</ele>
        <time>2025-09-03T12:13:05.078Z</time>
      </trkpt>
      <trkpt lat="43.160815" lon="-4.766707">
        <ele>1464.179634</ele>
        <time>2025-09-03T12:13:35.109Z</time>
      </trkpt>
      <trkpt lat="43.160072" lon="-4.767018">
        <ele>1460.014205</ele>
        <time>2025-09-03T12:15:01.877Z</time>
      </trkpt>
      <trkpt lat="43.159883" lon="-4.767165">
        <ele>1458.313959</ele>
        <time>2025-09-03T12:15:26.878Z</time>
      </trkpt>
      <trkpt lat="43.159630" lon="-4.767462">
        <ele>1455.707764</ele>
        <time>2025-09-03T12:16:05.475Z</time>
      </trkpt>
      <trkpt lat="43.159425" lon="-4.767635">
        <ele>1453.824196</ele>
        <time>2025-09-03T12:16:33.739Z</time>
      </trkpt>
      <trkpt lat="43.158902" lon="-4.767912">
        <ele>1449.437221</ele>
        <time>2025-09-03T12:17:39.812Z</time>
      </trkpt>
      <trkpt lat="43.158823" lon="-4.767989">
        <ele>1448.678779</ele>
        <time>2025-09-03T12:17:51.274Z</time>
      </trkpt>
      <trkpt lat="43.158200" lon="-4.769073">
        <ele>1439.750083</ele>
        <time>2025-09-03T12:19:48.620Z</time>
      </trkpt>
      <trkpt lat="43.158131" lon="-4.769194">
        <ele>1438.746194</ele>
        <time>2025-09-03T12:20:01.858Z</time>
      </trkpt>
      <trkpt lat="43.157890" lon="-4.769483">
        <ele>1435.877086</ele>
        <time>2025-09-03T12:20:39.588Z</time>
      </trkpt>
      <trkpt lat="43.157599" lon="-4.769791">
        <ele>1432.582822</ele>
        <time>2025-09-03T12:21:23.088Z</time>
      </trkpt>
      <trkpt lat="43.156783" lon="-4.770480">
        <ele>1422.184649</ele>
        <time>2025-09-03T12:23:18.485Z</time>
      </trkpt>
      <trkpt lat="43.156593" lon="-4.770612">
        <ele>1419.840491</ele>
        <time>2025-09-03T12:23:44.649Z</time>
      </trkpt>
      <trkpt lat="43.156462" lon="-4.770641">
        <ele>1418.380151</ele>
        <time>2025-09-03T12:24:00.919Z</time>
      </trkpt>
      <trkpt lat="43.156017" lon="-4.770616">
        <ele>1413.478791</ele>
        <time>2025-09-03T12:24:55.965Z</time>
      </trkpt>
      <trkpt lat="43.155941" lon="-4.770638">
        <ele>1412.623962</ele>
        <time>2025-09-03T12:25:05.619Z</time>
      </trkpt>
      <trkpt lat="43.155881" lon="-4.770697">
        <ele>1411.854153</ele>
        <time>2025-09-03T12:25:14.823Z</time>
      </trkpt>
      <trkpt lat="43.155839" lon="-4.770876">
        <ele>1410.543224</ele>
        <time>2025-09-03T12:25:31.821Z</time>
      </trkpt>
      <trkpt lat="43.155812" lon="-4.771231">
        <ele>1408.054795</ele>
        <time>2025-09-03T12:26:03.983Z</time>
      </trkpt>
      <trkpt lat="43.155782" lon="-4.771316">
        <ele>1407.396471</ele>
        <time>2025-09-03T12:26:12.491Z</time>
      </trkpt>
      <trkpt lat="43.155713" lon="-4.771369">
        <ele>1406.640562</ele>
        <time>2025-09-03T12:26:22.116Z</time>
      </trkpt>
      <trkpt lat="43.155497" lon="-4.771360">
        <ele>1404.575274</ele>
        <time>2025-09-03T12:26:48.273Z</time>
      </trkpt>
      <trkpt lat="43.155242" lon="-4.771287">
        <ele>1402.085636</ele>
        <time>2025-09-03T12:27:19.189Z</time>
      </trkpt>
      <trkpt lat="43.154829" lon="-4.771108">
        <ele>1397.945959</ele>
        <time>2025-09-03T12:28:09.514Z</time>
      </trkpt>
      <trkpt lat="43.154744" lon="-4.771105">
        <ele>1397.133336</ele>
        <time>2025-09-03T12:28:19.368Z</time>
      </trkpt>
      <trkpt lat="43.154610" lon="-4.771174">
        <ele>1395.765310</ele>
        <time>2025-09-03T12:28:35.705Z</time>
      </trkpt>
      <trkpt lat="43.154408" lon="-4.771196">
        <ele>1394.184950</ele>
        <time>2025-09-03T12:28:58.826Z</time>
      </trkpt>
      <trkpt lat="43.153814" lon="-4.771240">
        <ele>1390.311013</ele>
        <time>2025-09-03T12:30:05.502Z</time>
      </trkpt>
      <trkpt lat="43.153696" lon="-4.771320">
        <ele>1389.453712</ele>
        <time>2025-09-03T12:30:20.192Z</time>
      </trkpt>
      <trkpt lat="43.153508" lon="-4.771355">
        <ele>1388.218164</ele>
        <time>2025-09-03T12:30:41.269Z</time>
      </trkpt>
      <trkpt lat="43.153283" lon="-4.771312">
        <ele>1386.738728</ele>
        <time>2025-09-03T12:31:06.749Z</time>
      </trkpt>
      <trkpt lat="43.152909" lon="-4.771351">
        <ele>1384.296099</ele>
        <time>2025-09-03T12:31:49.182Z</time>
      </trkpt>
      <trkpt lat="43.152850" lon="-4.771391">
        <ele>1383.867447</ele>
        <time>2025-09-03T12:31:56.716Z</time>
      </trkpt>
      <trkpt lat="43.152482" lon="-4.771597">
        <ele>1380.768733</ele>
        <time>2025-09-03T12:32:42.513Z</time>
      </trkpt>
      <trkpt lat="43.152278" lon="-4.771744">
        <ele>1378.876233</ele>
        <time>2025-09-03T12:33:09.082Z</time>
      </trkpt>
      <trkpt lat="43.151907" lon="-4.772131">
        <ele>1375.047967</ele>
        <time>2025-09-03T12:34:03.493Z</time>
      </trkpt>
      <trkpt lat="43.151654" lon="-4.772256">
        <ele>1372.839634</ele>
        <time>2025-09-03T12:34:35.082Z</time>
      </trkpt>
      <trkpt lat="43.151537" lon="-4.772347">
        <ele>1371.735005</ele>
        <time>2025-09-03T12:34:50.842Z</time>
      </trkpt>
      <trkpt lat="43.151330" lon="-4.772583">
        <ele>1369.524116</ele>
        <time>2025-09-03T12:35:22.665Z</time>
      </trkpt>
      <trkpt lat="43.151091" lon="-4.772734">
        <ele>1367.320263</ele>
        <time>2025-09-03T12:35:53.688Z</time>
      </trkpt>
      <trkpt lat="43.150881" lon="-4.772913">
        <ele>1365.210562</ele>
        <time>2025-09-03T12:36:22.799Z</time>
      </trkpt>
      <trkpt lat="43.150657" lon="-4.773123">
        <ele>1362.895351</ele>
        <time>2025-09-03T12:36:54.465Z</time>
      </trkpt>
      <trkpt lat="43.150358" lon="-4.773519">
        <ele>1359.348313</ele>
        <time>2025-09-03T12:37:42.099Z</time>
      </trkpt>
      <trkpt lat="43.149945" lon="-4.773892">
        <ele>1355.128850</ele>
        <time>2025-09-03T12:38:38.708Z</time>
      </trkpt>
      <trkpt lat="43.149717" lon="-4.774249">
        <ele>1350.992592</ele>
        <time>2025-09-03T12:39:19.163Z</time>
      </trkpt>
      <trkpt lat="43.149341" lon="-4.775031">
        <ele>1337.856286</ele>
        <time>2025-09-03T12:40:45.080Z</time>
      </trkpt>
      <trkpt lat="43.149227" lon="-4.775157">
        <ele>1335.040816</ele>
        <time>2025-09-03T12:41:06.032Z</time>
      </trkpt>
      <trkpt lat="43.149142" lon="-4.775356">
        <ele>1331.806400</ele>
        <time>2025-09-03T12:41:31.993Z</time>
      </trkpt>
      <trkpt lat="43.149061" lon="-4.775454">
        <ele>1329.729264</ele>
        <time>2025-09-03T12:41:49.471Z</time>
      </trkpt>
      <trkpt lat="43.148976" lon="-4.775459">
        <ele>1328.093609</ele>
        <time>2025-09-03T12:42:03.974Z</time>
      </trkpt>
      <trkpt lat="43.148940" lon="-4.775436">
        <ele>1327.330004</ele>
        <time>2025-09-03T12:42:10.665Z</time>
      </trkpt>
      <trkpt lat="43.148976" lon="-4.775459">
        <ele>1326.566399</ele>
        <time>2025-09-03T12:42:16.949Z</time>
      </trkpt>
      <trkpt lat="43.148971" lon="-4.775499">
        <ele>1325.997170</ele>
        <time>2025-09-03T12:42:23.548Z</time>
      </trkpt>
      <trkpt lat="43.148966" lon="-4.775588">
        <ele>1324.745128</ele>
        <time>2025-09-03T12:42:34.785Z</time>
      </trkpt>
      <trkpt lat="43.148887" lon="-4.775645">
        <ele>1323.028750</ele>
        <time>2025-09-03T12:42:54.192Z</time>
      </trkpt>
      <trkpt lat="43.148783" lon="-4.775866">
        <ele>1319.340026</ele>
        <time>2025-09-03T12:43:36.888Z</time>
      </trkpt>
      <trkpt lat="43.148768" lon="-4.775981">
        <ele>1317.416448</ele>
        <time>2025-09-03T12:43:55.546Z</time>
      </trkpt>
      <trkpt lat="43.148681" lon="-4.776072">
        <ele>1314.597626</ele>
        <time>2025-09-03T12:44:20.779Z</time>
      </trkpt>
      <trkpt lat="43.148607" lon="-4.776090">
        <ele>1312.661825</ele>
        <time>2025-09-03T12:44:37.869Z</time>
      </trkpt>
      <trkpt lat="43.148569" lon="-4.776188">
        <ele>1310.576281</ele>
        <time>2025-09-03T12:44:56.523Z</time>
      </trkpt>
      <trkpt lat="43.148349" lon="-4.776466">
        <ele>1302.869042</ele>
        <time>2025-09-03T12:46:04.123Z</time>
      </trkpt>
      <trkpt lat="43.148236" lon="-4.776751">
        <ele>1296.773559</ele>
        <time>2025-09-03T12:46:57.022Z</time>
      </trkpt>
      <trkpt lat="43.148137" lon="-4.776871">
        <ele>1293.369528</ele>
        <time>2025-09-03T12:47:25.828Z</time>
      </trkpt>
      <trkpt lat="43.147963" lon="-4.777307">
        <ele>1284.030549</ele>
        <time>2025-09-03T12:48:40.776Z</time>
      </trkpt>
      <trkpt lat="43.147849" lon="-4.777467">
        <ele>1279.827893</ele>
        <time>2025-09-03T12:49:12.710Z</time>
      </trkpt>
      <trkpt lat="43.147736" lon="-4.777704">
        <ele>1274.507459</ele>
        <time>2025-09-03T12:49:52.131Z</time>
      </trkpt>
      <trkpt lat="43.147659" lon="-4.777785">
        <ele>1272.060461</ele>
        <time>2025-09-03T12:50:09.950Z</time>
      </trkpt>
      <trkpt lat="43.147598" lon="-4.777796">
        <ele>1270.885934</ele>
        <time>2025-09-03T12:50:21.403Z</time>
      </trkpt>
      <trkpt lat="43.147585" lon="-4.777716">
        <ele>1269.744392</ele>
        <time>2025-09-03T12:50:32.360Z</time>
      </trkpt>
      <trkpt lat="43.147546" lon="-4.777698">
        <ele>1268.958803</ele>
        <time>2025-09-03T12:50:39.848Z</time>
      </trkpt>
      <trkpt lat="43.147472" lon="-4.777722">
        <ele>1267.507130</ele>
        <time>2025-09-03T12:50:53.986Z</time>
      </trkpt>
      <trkpt lat="43.147212" lon="-4.777676">
        <ele>1262.502540</ele>
        <time>2025-09-03T12:51:42.195Z</time>
      </trkpt>
      <trkpt lat="43.147212" lon="-4.777628">
        <ele>1261.833992</ele>
        <time>2025-09-03T12:51:48.459Z</time>
      </trkpt>
      <trkpt lat="43.147263" lon="-4.777533">
        <ele>1260.191235</ele>
        <time>2025-09-03T12:52:03.312Z</time>
      </trkpt>
      <trkpt lat="43.147249" lon="-4.777522">
        <ele>1259.883175</ele>
        <time>2025-09-03T12:52:06.159Z</time>
      </trkpt>
      <trkpt lat="43.147071" lon="-4.777580">
        <ele>1256.390443</ele>
        <time>2025-09-03T12:52:37.395Z</time>
      </trkpt>
      <trkpt lat="43.146873" lon="-4.777543">
        <ele>1252.575646</ele>
        <time>2025-09-03T12:53:12.135Z</time>
      </trkpt>
      <trkpt lat="43.146864" lon="-4.777500">
        <ele>1251.952579</ele>
        <time>2025-09-03T12:53:17.804Z</time>
      </trkpt>
      <trkpt lat="43.146975" lon="-4.777397">
        <ele>1249.393632</ele>
        <time>2025-09-03T12:53:41.423Z</time>
      </trkpt>
      <trkpt lat="43.146999" lon="-4.777353">
        <ele>1248.628465</ele>
        <time>2025-09-03T12:53:48.383Z</time>
      </trkpt>
      <trkpt lat="43.146994" lon="-4.777310">
        <ele>1248.021997</ele>
        <time>2025-09-03T12:53:53.992Z</time>
      </trkpt>
      <trkpt lat="43.146837" lon="-4.777259">
        <ele>1244.941834</ele>
        <time>2025-09-03T12:54:22.308Z</time>
      </trkpt>
      <trkpt lat="43.146821" lon="-4.777243">
        <ele>1244.563739</ele>
        <time>2025-09-03T12:54:25.783Z</time>
      </trkpt>
      <trkpt lat="43.146836" lon="-4.777193">
        <ele>1243.810757</ele>
        <time>2025-09-03T12:54:32.677Z</time>
      </trkpt>
      <trkpt lat="43.146811" lon="-4.777145">
        <ele>1242.989338</ele>
        <time>2025-09-03T12:54:40.019Z</time>
      </trkpt>
      <trkpt lat="43.146782" lon="-4.777150">
        <ele>1242.431364</ele>
        <time>2025-09-03T12:54:45.380Z</time>
      </trkpt>
      <trkpt lat="43.146641" lon="-4.777388">
        <ele>1238.161253</ele>
        <time>2025-09-03T12:55:24.330Z</time>
      </trkpt>
      <trkpt lat="43.146192" lon="-4.777445">
        <ele>1233.736023</ele>
        <time>2025-09-03T12:56:38.722Z</time>
      </trkpt>
      <trkpt lat="43.145983" lon="-4.777527">
        <ele>1231.671610</ele>
        <time>2025-09-03T12:57:13.306Z</time>
      </trkpt>
      <trkpt lat="43.145715" lon="-4.777683">
        <ele>1228.906631</ele>
        <time>2025-09-03T12:57:57.252Z</time>
      </trkpt>
      <trkpt lat="43.145380" lon="-4.778049">
        <ele>1224.838377</ele>
        <time>2025-09-03T12:58:59.214Z</time>
      </trkpt>
      <trkpt lat="43.145251" lon="-4.778141">
        <ele>1223.457453</ele>
        <time>2025-09-03T12:59:18.800Z</time>
      </trkpt>
      <trkpt lat="43.145297" lon="-4.778571">
        <ele>1220.783577</ele>
        <time>2025-09-03T12:59:59.170Z</time>
      </trkpt>
      <trkpt lat="43.145279" lon="-4.779088">
        <ele>1220.655140</ele>
        <time>2025-09-03T13:00:49.629Z</time>
      </trkpt>
      <trkpt lat="43.145313" lon="-4.779271">
        <ele>1220.608280</ele>
        <time>2025-09-03T13:01:08.421Z</time>
      </trkpt>
      <trkpt lat="43.145271" lon="-4.779354">
        <ele>1220.583215</ele>
        <time>2025-09-03T13:01:18.326Z</time>
      </trkpt>
      <trkpt lat="43.145117" lon="-4.779426">
        <ele>1220.527876</ele>
        <time>2025-09-03T13:01:40.626Z</time>
      </trkpt>
      <trkpt lat="43.144948" lon="-4.779547">
        <ele>1220.463029</ele>
        <time>2025-09-03T13:02:06.347Z</time>
      </trkpt>
      <trkpt lat="43.144780" lon="-4.779528">
        <ele>1220.405698</ele>
        <time>2025-09-03T13:02:28.392Z</time>
      </trkpt>
      <trkpt lat="43.144599" lon="-4.779390">
        <ele>1220.335255</ele>
        <time>2025-09-03T13:02:54.421Z</time>
      </trkpt>
      <trkpt lat="43.144197" lon="-4.779429">
        <ele>1220.198192</ele>
        <time>2025-09-03T13:03:47.689Z</time>
      </trkpt>
      <trkpt lat="43.144034" lon="-4.779370">
        <ele>1220.316325</ele>
        <time>2025-09-03T13:04:10.656Z</time>
      </trkpt>
      <trkpt lat="43.143829" lon="-4.779351">
        <ele>1220.528140</ele>
        <time>2025-09-03T13:04:38.694Z</time>
      </trkpt>
      <trkpt lat="43.143706" lon="-4.779372">
        <ele>1220.655920</ele>
        <time>2025-09-03T13:04:55.400Z</time>
      </trkpt>
      <trkpt lat="43.143678" lon="-4.779455">
        <ele>1220.724701</ele>
        <time>2025-09-03T13:05:04.391Z</time>
      </trkpt>
      <trkpt lat="43.143584" lon="-4.779555">
        <ele>1220.847372</ele>
        <time>2025-09-03T13:05:20.129Z</time>
      </trkpt>
      <trkpt lat="43.143459" lon="-4.779600">
        <ele>1220.980605</ele>
        <time>2025-09-03T13:05:36.903Z</time>
      </trkpt>
      <trkpt lat="43.143148" lon="-4.779785">
        <ele>1221.330109</ele>
        <time>2025-09-03T13:06:19.695Z</time>
      </trkpt>
      <trkpt lat="43.143093" lon="-4.780003">
        <ele>1221.503612</ele>
        <time>2025-09-03T13:06:42.607Z</time>
      </trkpt>
      <trkpt lat="43.143101" lon="-4.780534">
        <ele>1221.903109</ele>
        <time>2025-09-03T13:07:39.303Z</time>
      </trkpt>
      <trkpt lat="43.143171" lon="-4.780923">
        <ele>1222.922121</ele>
        <time>2025-09-03T13:08:25.278Z</time>
      </trkpt>
      <trkpt lat="43.143151" lon="-4.781239">
        <ele>1224.192846</ele>
        <time>2025-09-03T13:09:03.109Z</time>
      </trkpt>
      <trkpt lat="43.143049" lon="-4.781513">
        <ele>1225.425169</ele>
        <time>2025-09-03T13:09:40.573Z</time>
      </trkpt>
      <trkpt lat="43.142936" lon="-4.781733">
        <ele>1226.503024</ele>
        <time>2025-09-03T13:10:12.714Z</time>
      </trkpt>
      <trkpt lat="43.142806" lon="-4.781801">
        <ele>1227.267029</ele>
        <time>2025-09-03T13:10:34.980Z</time>
      </trkpt>
      <trkpt lat="43.142776" lon="-4.782001">
        <ele>1228.085038</ele>
        <time>2025-09-03T13:10:58.313Z</time>
      </trkpt>
      <trkpt lat="43.142627" lon="-4.782216">
        <ele>1229.272985</ele>
        <time>2025-09-03T13:11:30.556Z</time>
      </trkpt>
      <trkpt lat="43.142102" lon="-4.782489">
        <ele>1231.500409</ele>
        <time>2025-09-03T13:12:45.398Z</time>
      </trkpt>
      <trkpt lat="43.141754" lon="-4.782459">
        <ele>1229.706713</ele>
        <time>2025-09-03T13:13:30.605Z</time>
      </trkpt>
      <trkpt lat="43.141656" lon="-4.782398">
        <ele>1229.153029</ele>
        <time>2025-09-03T13:13:44.993Z</time>
      </trkpt>
      <trkpt lat="43.141556" lon="-4.782383">
        <ele>1228.635544</ele>
        <time>2025-09-03T13:13:58.649Z</time>
      </trkpt>
      <trkpt lat="43.141341" lon="-4.782259">
        <ele>1227.435611</ele>
        <time>2025-09-03T13:14:30.649Z</time>
      </trkpt>
      <trkpt lat="43.141144" lon="-4.782041">
        <ele>1226.133102</ele>
        <time>2025-09-03T13:15:06.273Z</time>
      </trkpt>
      <trkpt lat="43.141022" lon="-4.781995">
        <ele>1225.482200</ele>
        <time>2025-09-03T13:15:24.360Z</time>
      </trkpt>
      <trkpt lat="43.140838" lon="-4.782350">
        <ele>1223.847735</ele>
        <time>2025-09-03T13:16:10.988Z</time>
      </trkpt>
      <trkpt lat="43.140753" lon="-4.782440">
        <ele>1223.295186</ele>
        <time>2025-09-03T13:16:27.081Z</time>
      </trkpt>
      <trkpt lat="43.140681" lon="-4.782618">
        <ele>1222.420660</ele>
        <time>2025-09-03T13:16:49.333Z</time>
      </trkpt>
      <trkpt lat="43.140486" lon="-4.782870">
        <ele>1219.874203</ele>
        <time>2025-09-03T13:17:29.892Z</time>
      </trkpt>
      <trkpt lat="43.140306" lon="-4.783165">
        <ele>1217.208278</ele>
        <time>2025-09-03T13:18:12.378Z</time>
      </trkpt>
      <trkpt lat="43.140040" lon="-4.783348">
        <ele>1214.380480</ele>
        <time>2025-09-03T13:18:57.514Z</time>
      </trkpt>
      <trkpt lat="43.139939" lon="-4.783493">
        <ele>1212.990765</ele>
        <time>2025-09-03T13:19:19.705Z</time>
      </trkpt>
      <trkpt lat="43.139734" lon="-4.783922">
        <ele>1209.435652</ele>
        <time>2025-09-03T13:20:16.675Z</time>
      </trkpt>
      <trkpt lat="43.139671" lon="-4.784158">
        <ele>1207.693488</ele>
        <time>2025-09-03T13:20:44.049Z</time>
      </trkpt>
      <trkpt lat="43.139288" lon="-4.785086">
        <ele>1206.453023</ele>
        <time>2025-09-03T13:22:32.658Z</time>
      </trkpt>
      <trkpt lat="43.139206" lon="-4.785340">
        <ele>1206.774449</ele>
        <time>2025-09-03T13:22:58.997Z</time>
      </trkpt>
      <trkpt lat="43.138920" lon="-4.785681">
        <ele>1207.375668</ele>
        <time>2025-09-03T13:23:48.905Z</time>
      </trkpt>
      <trkpt lat="43.138838" lon="-4.785864">
        <ele>1207.624189</ele>
        <time>2025-09-03T13:24:11.844Z</time>
      </trkpt>
      <trkpt lat="43.138732" lon="-4.785976">
        <ele>1207.836464</ele>
        <time>2025-09-03T13:24:32.841Z</time>
      </trkpt>
      <trkpt lat="43.138407" lon="-4.786143">
        <ele>1208.386938</ele>
        <time>2025-09-03T13:25:31.445Z</time>
      </trkpt>
      <trkpt lat="43.138262" lon="-4.786325">
        <ele>1210.267780</ele>
        <time>2025-09-03T13:26:07.949Z</time>
      </trkpt>
      <trkpt lat="43.138113" lon="-4.786561">
        <ele>1212.704033</ele>
        <time>2025-09-03T13:26:50.861Z</time>
      </trkpt>
      <trkpt lat="43.138067" lon="-4.786722">
        <ele>1214.053816</ele>
        <time>2025-09-03T13:27:14.350Z</time>
      </trkpt>
      <trkpt lat="43.137800" lon="-4.787366">
        <ele>1219.836127</ele>
        <time>2025-09-03T13:28:48.038Z</time>
      </trkpt>
      <trkpt lat="43.137620" lon="-4.787575">
        <ele>1222.360102</ele>
        <time>2025-09-03T13:29:28.456Z</time>
      </trkpt>
      <trkpt lat="43.137448" lon="-4.787650">
        <ele>1224.291122</ele>
        <time>2025-09-03T13:29:58.819Z</time>
      </trkpt>
      <trkpt lat="43.137335" lon="-4.787666">
        <ele>1225.506470</ele>
        <time>2025-09-03T13:30:17.808Z</time>
      </trkpt>
      <trkpt lat="43.137228" lon="-4.787575">
        <ele>1226.853718</ele>
        <time>2025-09-03T13:30:38.468Z</time>
      </trkpt>
      <trkpt lat="43.137039" lon="-4.787497">
        <ele>1228.401485</ele>
        <time>2025-09-03T13:31:10.693Z</time>
      </trkpt>
      <trkpt lat="43.136878" lon="-4.787512">
        <ele>1229.377391</ele>
        <time>2025-09-03T13:31:36.812Z</time>
      </trkpt>
      <trkpt lat="43.136779" lon="-4.787543">
        <ele>1229.991531</ele>
        <time>2025-09-03T13:31:53.174Z</time>
      </trkpt>
      <trkpt lat="43.136615" lon="-4.787787">
        <ele>1231.455476</ele>
        <time>2025-09-03T13:32:31.544Z</time>
      </trkpt>
      <trkpt lat="43.136460" lon="-4.788227">
        <ele>1233.611644</ele>
        <time>2025-09-03T13:33:27.759Z</time>
      </trkpt>
      <trkpt lat="43.136309" lon="-4.788399">
        <ele>1234.799103</ele>
        <time>2025-09-03T13:33:58.387Z</time>
      </trkpt>
      <trkpt lat="43.136250" lon="-4.788572">
        <ele>1235.641830</ele>
        <time>2025-09-03T13:34:19.761Z</time>
      </trkpt>
      <trkpt lat="43.136223" lon="-4.788754">
        <ele>1236.461442</ele>
        <time>2025-09-03T13:34:40.336Z</time>
      </trkpt>
      <trkpt lat="43.136235" lon="-4.789000">
        <ele>1237.549485</ele>
        <time>2025-09-03T13:35:06.627Z</time>
      </trkpt>
      <trkpt lat="43.136270" lon="-4.789197">
        <ele>1238.444259</ele>
        <time>2025-09-03T13:35:27.011Z</time>
      </trkpt>
      <trkpt lat="43.136255" lon="-4.789383">
        <ele>1237.053802</ele>
        <time>2025-09-03T13:35:44.572Z</time>
      </trkpt>
      <trkpt lat="43.136313" lon="-4.789587">
        <ele>1235.064279</ele>
        <time>2025-09-03T13:36:05.178Z</time>
      </trkpt>
      <trkpt lat="43.136113" lon="-4.790155">
        <ele>1229.333276</ele>
        <time>2025-09-03T13:37:11.229Z</time>
      </trkpt>
      <trkpt lat="43.135824" lon="-4.790761">
        <ele>1222.754710</ele>
        <time>2025-09-03T13:38:38.155Z</time>
      </trkpt>
      <trkpt lat="43.135714" lon="-4.790826">
        <ele>1221.262972</ele>
        <time>2025-09-03T13:39:00.151Z</time>
      </trkpt>
      <trkpt lat="43.135607" lon="-4.790782">
        <ele>1219.871819</ele>
        <time>2025-09-03T13:39:21.368Z</time>
      </trkpt>
      <trkpt lat="43.135268" lon="-4.789990">
        <ele>1208.685424</ele>
        <time>2025-09-03T13:41:33.475Z</time>
      </trkpt>
      <trkpt lat="43.135204" lon="-4.789903">
        <ele>1206.872051</ele>
        <time>2025-09-03T13:41:51.148Z</time>
      </trkpt>
      <trkpt lat="43.135149" lon="-4.789873">
        <ele>1205.681276</ele>
        <time>2025-09-03T13:42:02.543Z</time>
      </trkpt>
      <trkpt lat="43.135047" lon="-4.789911">
        <ele>1203.555021</ele>
        <time>2025-09-03T13:42:22.741Z</time>
      </trkpt>
      <trkpt lat="43.135013" lon="-4.790450">
        <ele>1195.613440</ele>
        <time>2025-09-03T13:43:36.794Z</time>
      </trkpt>
      <trkpt lat="43.134931" lon="-4.790692">
        <ele>1191.696802</ele>
        <time>2025-09-03T13:44:12.422Z</time>
      </trkpt>
      <trkpt lat="43.134794" lon="-4.791427">
        <ele>1180.561186</ele>
        <time>2025-09-03T13:45:48.170Z</time>
      </trkpt>
      <trkpt lat="43.134727" lon="-4.791625">
        <ele>1178.472878</ele>
        <time>2025-09-03T13:46:14.352Z</time>
      </trkpt>
      <trkpt lat="43.134663" lon="-4.791938">
        <ele>1175.741076</ele>
        <time>2025-09-03T13:46:52.718Z</time>
      </trkpt>
      <trkpt lat="43.134539" lon="-4.792202">
        <ele>1173.102532</ele>
        <time>2025-09-03T13:47:29.117Z</time>
      </trkpt>
      <trkpt lat="43.134543" lon="-4.792499">
        <ele>1170.606074</ele>
        <time>2025-09-03T13:48:02.753Z</time>
      </trkpt>
      <trkpt lat="43.134583" lon="-4.792925">
        <ele>1166.996392</ele>
        <time>2025-09-03T13:48:50.431Z</time>
      </trkpt>
      <trkpt lat="43.134720" lon="-4.793352">
        <ele>1163.076299</ele>
        <time>2025-09-03T13:49:40.345Z</time>
      </trkpt>
      <trkpt lat="43.134722" lon="-4.793652">
        <ele>1160.554955</ele>
        <time>2025-09-03T13:50:11.535Z</time>
      </trkpt>
      <trkpt lat="43.135066" lon="-4.793845">
        <ele>1157.262378</ele>
        <time>2025-09-03T13:51:03.621Z</time>
      </trkpt>
      <trkpt lat="43.135243" lon="-4.793907">
        <ele>1155.856486</ele>
        <time>2025-09-03T13:51:29.107Z</time>
      </trkpt>
      <trkpt lat="43.135380" lon="-4.794167">
        <ele>1154.055558</ele>
        <time>2025-09-03T13:52:01.906Z</time>
      </trkpt>
      <trkpt lat="43.135662" lon="-4.794541">
        <ele>1151.035537</ele>
        <time>2025-09-03T13:52:58.032Z</time>
      </trkpt>
      <trkpt lat="43.135862" lon="-4.794927">
        <ele>1148.377063</ele>
        <time>2025-09-03T13:53:48.317Z</time>
      </trkpt>
      <trkpt lat="43.135986" lon="-4.795266">
        <ele>1146.247592</ele>
        <time>2025-09-03T13:54:29.136Z</time>
      </trkpt>
      <trkpt lat="43.136038" lon="-4.795444">
        <ele>1145.177087</ele>
        <time>2025-09-03T13:54:49.997Z</time>
      </trkpt>
      <trkpt lat="43.136097" lon="-4.795648">
        <ele>1143.976588</ele>
        <time>2025-09-03T13:55:14.213Z</time>
      </trkpt>
      <trkpt lat="43.136123" lon="-4.795850">
        <ele>1142.854430</ele>
        <time>2025-09-03T13:55:36.791Z</time>
      </trkpt>
      <trkpt lat="43.135910" lon="-4.796151">
        <ele>1140.560609</ele>
        <time>2025-09-03T13:56:22.628Z</time>
      </trkpt>
      <trkpt lat="43.135907" lon="-4.796267">
        <ele>1139.925597</ele>
        <time>2025-09-03T13:56:35.087Z</time>
      </trkpt>
      <trkpt lat="43.135812" lon="-4.796439">
        <ele>1138.745473</ele>
        <time>2025-09-03T13:56:57.994Z</time>
      </trkpt>
      <trkpt lat="43.135863" lon="-4.796619">
        <ele>1137.689105</ele>
        <time>2025-09-03T13:57:18.258Z</time>
      </trkpt>
      <trkpt lat="43.135931" lon="-4.796741">
        <ele>1136.849244</ele>
        <time>2025-09-03T13:57:34.157Z</time>
      </trkpt>
      <trkpt lat="43.135896" lon="-4.797136">
        <ele>1134.672403</ele>
        <time>2025-09-03T13:58:14.559Z</time>
      </trkpt>
      <trkpt lat="43.135648" lon="-4.797287">
        <ele>1132.637887</ele>
        <time>2025-09-03T13:58:51.611Z</time>
      </trkpt>
      <trkpt lat="43.135515" lon="-4.797432">
        <ele>1131.335044</ele>
        <time>2025-09-03T13:59:14.792Z</time>
      </trkpt>
      <trkpt lat="43.135495" lon="-4.797507">
        <ele>1130.875946</ele>
        <time>2025-09-03T13:59:22.681Z</time>
      </trkpt>
      <trkpt lat="43.135666" lon="-4.797833">
        <ele>1128.567656</ele>
        <time>2025-09-03T14:00:02.932Z</time>
      </trkpt>
      <trkpt lat="43.135723" lon="-4.797990">
        <ele>1127.559450</ele>
        <time>2025-09-03T14:00:20.820Z</time>
      </trkpt>
      <trkpt lat="43.135748" lon="-4.798145">
        <ele>1126.646781</ele>
        <time>2025-09-03T14:00:37.046Z</time>
      </trkpt>
      <trkpt lat="43.135716" lon="-4.798245">
        <ele>1126.018988</ele>
        <time>2025-09-03T14:00:48.137Z</time>
      </trkpt>
      <trkpt lat="43.135298" lon="-4.798857">
        <ele>1121.199549</ele>
        <time>2025-09-03T14:02:17.243Z</time>
      </trkpt>
      <trkpt lat="43.134938" lon="-4.799021">
        <ele>1118.210566</ele>
        <time>2025-09-03T14:03:14.702Z</time>
      </trkpt>
      <trkpt lat="43.134794" lon="-4.799286">
        <ele>1115.378741</ele>
        <time>2025-09-03T14:03:51.638Z</time>
      </trkpt>
      <trkpt lat="43.134478" lon="-4.799163">
        <ele>1111.120766</ele>
        <time>2025-09-03T14:04:42.755Z</time>
      </trkpt>
      <trkpt lat="43.134425" lon="-4.799222">
        <ele>1110.235674</ele>
        <time>2025-09-03T14:04:53.541Z</time>
      </trkpt>
      <trkpt lat="43.134417" lon="-4.799353">
        <ele>1108.992223</ele>
        <time>2025-09-03T14:05:08.693Z</time>
      </trkpt>
      <trkpt lat="43.134450" lon="-4.799504">
        <ele>1107.501251</ele>
        <time>2025-09-03T14:05:26.900Z</time>
      </trkpt>
      <trkpt lat="43.134608" lon="-4.799954">
        <ele>1102.777686</ele>
        <time>2025-09-03T14:06:24.632Z</time>
      </trkpt>
      <trkpt lat="43.134434" lon="-4.800375">
        <ele>1098.201161</ele>
        <time>2025-09-03T14:07:20.304Z</time>
      </trkpt>
      <trkpt lat="43.134091" lon="-4.800947">
        <ele>1091.265345</ele>
        <time>2025-09-03T14:08:45.168Z</time>
      </trkpt>
      <trkpt lat="43.133802" lon="-4.801244">
        <ele>1086.679732</ele>
        <time>2025-09-03T14:09:42.694Z</time>
      </trkpt>
      <trkpt lat="43.134021" lon="-4.801567">
        <ele>1082.595480</ele>
        <time>2025-09-03T14:10:34.062Z</time>
      </trkpt>
      <trkpt lat="43.134043" lon="-4.801858">
        <ele>1079.885368</ele>
        <time>2025-09-03T14:11:07.927Z</time>
      </trkpt>
      <trkpt lat="43.134089" lon="-4.802038">
        <ele>1078.118648</ele>
        <time>2025-09-03T14:11:29.698Z</time>
      </trkpt>
      <trkpt lat="43.134100" lon="-4.802082">
        <ele>1077.687799</ele>
        <time>2025-09-03T14:11:35.117Z</time>
      </trkpt>
      <trkpt lat="43.134103" lon="-4.802257">
        <ele>1076.066237</ele>
        <time>2025-09-03T14:11:55.222Z</time>
      </trkpt>
      <trkpt lat="43.134073" lon="-4.802394">
        <ele>1074.741231</ele>
        <time>2025-09-03T14:12:11.482Z</time>
      </trkpt>
      <trkpt lat="43.134086" lon="-4.802522">
        <ele>1073.544073</ele>
        <time>2025-09-03T14:12:26.058Z</time>
      </trkpt>
      <trkpt lat="43.134167" lon="-4.802803">
        <ele>1071.530490</ele>
        <time>2025-09-03T14:12:59.124Z</time>
      </trkpt>
      <trkpt lat="43.134311" lon="-4.803004">
        <ele>1071.290196</ele>
        <time>2025-09-03T14:13:29.138Z</time>
      </trkpt>
      <trkpt lat="43.134301" lon="-4.803359">
        <ele>1070.987120</ele>
        <time>2025-09-03T14:14:05.409Z</time>
      </trkpt>
      <trkpt lat="43.134333" lon="-4.803530">
        <ele>1070.836520</ele>
        <time>2025-09-03T14:14:22.979Z</time>
      </trkpt>
      <trkpt lat="43.134367" lon="-4.803678">
        <ele>1070.704153</ele>
        <time>2025-09-03T14:14:38.123Z</time>
      </trkpt>
      <trkpt lat="43.134735" lon="-4.803938">
        <ele>1070.220137</ele>
        <time>2025-09-03T14:15:30.981Z</time>
      </trkpt>
      <trkpt lat="43.134918" lon="-4.804002">
        <ele>1069.999349</ele>
        <time>2025-09-03T14:15:56.358Z</time>
      </trkpt>
      <trkpt lat="43.135123" lon="-4.803952">
        <ele>1069.755932</ele>
        <time>2025-09-03T14:16:26.255Z</time>
      </trkpt>
      <trkpt lat="43.135414" lon="-4.804196">
        <ele>1069.606260</ele>
        <time>2025-09-03T14:17:22.408Z</time>
      </trkpt>
      <trkpt lat="43.135499" lon="-4.804351">
        <ele>1069.714928</ele>
        <time>2025-09-03T14:17:49.934Z</time>
      </trkpt>
      <trkpt lat="43.135795" lon="-4.804521">
        <ele>1069.961429</ele>
        <time>2025-09-03T14:18:42.932Z</time>
      </trkpt>
      <trkpt lat="43.136024" lon="-4.804479">
        <ele>1070.138879</ele>
        <time>2025-09-03T14:19:17.469Z</time>
      </trkpt>
      <trkpt lat="43.136527" lon="-4.804621">
        <ele>1070.533318</ele>
        <time>2025-09-03T14:20:22.421Z</time>
      </trkpt>
      <trkpt lat="43.136506" lon="-4.804842">
        <ele>1070.658226</ele>
        <time>2025-09-03T14:20:44.689Z</time>
      </trkpt>
      <trkpt lat="43.136607" lon="-4.805104">
        <ele>1070.824298</ele>
        <time>2025-09-03T14:21:15.711Z</time>
      </trkpt>
      <trkpt lat="43.136704" lon="-4.805403">
        <ele>1068.766546</ele>
        <time>2025-09-03T14:21:51.446Z</time>
      </trkpt>
      <trkpt lat="43.136916" lon="-4.805810">
        <ele>1063.758741</ele>
        <time>2025-09-03T14:22:51.003Z</time>
      </trkpt>
      <trkpt lat="43.137245" lon="-4.806650">
        <ele>1054.211403</ele>
        <time>2025-09-03T14:24:55.425Z</time>
      </trkpt>
      <trkpt lat="43.137330" lon="-4.806688">
        <ele>1052.984376</ele>
        <time>2025-09-03T14:25:09.982Z</time>
      </trkpt>
      <trkpt lat="43.137345" lon="-4.806753">
        <ele>1052.301659</ele>
        <time>2025-09-03T14:25:17.948Z</time>
      </trkpt>
      <trkpt lat="43.137294" lon="-4.806912">
        <ele>1050.562316</ele>
        <time>2025-09-03T14:25:37.737Z</time>
      </trkpt>
      <trkpt lat="43.137285" lon="-4.807025">
        <ele>1049.423957</ele>
        <time>2025-09-03T14:25:50.486Z</time>
      </trkpt>
      <trkpt lat="43.137331" lon="-4.807121">
        <ele>1048.273823</ele>
        <time>2025-09-03T14:26:03.044Z</time>
      </trkpt>
      <trkpt lat="43.137430" lon="-4.807229">
        <ele>1046.537238</ele>
        <time>2025-09-03T14:26:21.791Z</time>
      </trkpt>
      <trkpt lat="43.137427" lon="-4.807355">
        <ele>1046.155338</ele>
        <time>2025-09-03T14:26:35.305Z</time>
      </trkpt>
      <trkpt lat="43.137451" lon="-4.807467">
        <ele>1046.093306</ele>
        <time>2025-09-03T14:26:47.777Z</time>
      </trkpt>
      <trkpt lat="43.137591" lon="-4.807491">
        <ele>1045.990557</ele>
        <time>2025-09-03T14:27:08.262Z</time>
      </trkpt>
      <trkpt lat="43.137867" lon="-4.807378">
        <ele>1045.780781</ele>
        <time>2025-09-03T14:27:49.053Z</time>
      </trkpt>
      <trkpt lat="43.137963" lon="-4.807354">
        <ele>1045.709715</ele>
        <time>2025-09-03T14:28:02.399Z</time>
      </trkpt>
      <trkpt lat="43.138069" lon="-4.807368">
        <ele>1045.632163</ele>
        <time>2025-09-03T14:28:16.322Z</time>
      </trkpt>
      <trkpt lat="43.138160" lon="-4.807334">
        <ele>1045.563474</ele>
        <time>2025-09-03T14:28:28.428Z</time>
      </trkpt>
      <trkpt lat="43.138349" lon="-4.807444">
        <ele>1045.413936</ele>
        <time>2025-09-03T14:28:55.239Z</time>
      </trkpt>
      <trkpt lat="43.138523" lon="-4.807600">
        <ele>1045.262512</ele>
        <time>2025-09-03T14:29:24.158Z</time>
      </trkpt>
      <trkpt lat="43.138842" lon="-4.807757">
        <ele>1045.015673</ele>
        <time>2025-09-03T14:30:15.221Z</time>
      </trkpt>
      <trkpt lat="43.138968" lon="-4.807777">
        <ele>1044.923300</ele>
        <time>2025-09-03T14:30:35.253Z</time>
      </trkpt>
      <trkpt lat="43.139360" lon="-4.807947">
        <ele>1049.032402</ele>
        <time>2025-09-03T14:31:41.434Z</time>
      </trkpt>
      <trkpt lat="43.139556" lon="-4.808064">
        <ele>1051.409892</ele>
        <time>2025-09-03T14:32:16.910Z</time>
      </trkpt>
      <trkpt lat="43.139894" lon="-4.808107">
        <ele>1055.184902</ele>
        <time>2025-09-03T14:33:19.732Z</time>
      </trkpt>
      <trkpt lat="43.140175" lon="-4.808078">
        <ele>1058.318710</ele>
        <time>2025-09-03T14:34:19.284Z</time>
      </trkpt>
      <trkpt lat="43.140305" lon="-4.808129">
        <ele>1059.822489</ele>
        <time>2025-09-03T14:34:47.146Z</time>
      </trkpt>
      <trkpt lat="43.140477" lon="-4.808238">
        <ele>1061.929879</ele>
        <time>2025-09-03T14:35:24.825Z</time>
      </trkpt>
      <trkpt lat="43.140668" lon="-4.808462">
        <ele>1064.725535</ele>
        <time>2025-09-03T14:36:10.263Z</time>
      </trkpt>
      <trkpt lat="43.140820" lon="-4.808542">
        <ele>1065.471883</ele>
        <time>2025-09-03T14:36:37.492Z</time>
      </trkpt>
      <trkpt lat="43.140989" lon="-4.808585">
        <ele>1066.142041</ele>
        <time>2025-09-03T14:37:05.019Z</time>
      </trkpt>
      <trkpt lat="43.141153" lon="-4.808542">
        <ele>1066.793043</ele>
        <time>2025-09-03T14:37:30.868Z</time>
      </trkpt>
      <trkpt lat="43.141545" lon="-4.808456">
        <ele>1068.340835</ele>
        <time>2025-09-03T14:38:28.931Z</time>
      </trkpt>
      <trkpt lat="43.142035" lon="-4.808518">
        <ele>1070.259376</ele>
        <time>2025-09-03T14:39:35.238Z</time>
      </trkpt>
      <trkpt lat="43.142437" lon="-4.808819">
        <ele>1071.841691</ele>
        <time>2025-09-03T14:40:34.941Z</time>
      </trkpt>
      <trkpt lat="43.142600" lon="-4.808991">
        <ele>1071.438335</ele>
        <time>2025-09-03T14:41:02.470Z</time>
      </trkpt>
      <trkpt lat="43.142722" lon="-4.809011">
        <ele>1071.197421</ele>
        <time>2025-09-03T14:41:18.934Z</time>
      </trkpt>
      <trkpt lat="43.142839" lon="-4.809105">
        <ele>1070.931503</ele>
        <time>2025-09-03T14:41:37.018Z</time>
      </trkpt>
      <trkpt lat="43.143008" lon="-4.809175">
        <ele>1070.585337</ele>
        <time>2025-09-03T14:42:00.544Z</time>
      </trkpt>
      <trkpt lat="43.143270" lon="-4.809236">
        <ele>1070.064265</ele>
        <time>2025-09-03T14:42:35.403Z</time>
      </trkpt>
      <trkpt lat="43.143373" lon="-4.809395">
        <ele>1069.760079</ele>
        <time>2025-09-03T14:42:55.523Z</time>
      </trkpt>
      <trkpt lat="43.143479" lon="-4.809466">
        <ele>1069.528748</ele>
        <time>2025-09-03T14:43:10.854Z</time>
      </trkpt>
      <trkpt lat="43.143639" lon="-4.809457">
        <ele>1069.214766</ele>
        <time>2025-09-03T14:43:31.510Z</time>
      </trkpt>
      <trkpt lat="43.143923" lon="-4.809183">
        <ele>1068.533783</ele>
        <time>2025-09-03T14:44:16.079Z</time>
      </trkpt>
      <trkpt lat="43.144015" lon="-4.809165">
        <ele>1068.364292</ele>
        <time>2025-09-03T14:44:27.929Z</time>
      </trkpt>
      <trkpt lat="43.144286" lon="-4.809406">
        <ele>1067.985819</ele>
        <time>2025-09-03T14:45:09.283Z</time>
      </trkpt>
      <trkpt lat="43.144473" lon="-4.809486">
        <ele>1067.756313</ele>
        <time>2025-09-03T14:45:34.455Z</time>
      </trkpt>
      <trkpt lat="43.144691" lon="-4.809513">
        <ele>1067.499872</ele>
        <time>2025-09-03T14:46:02.756Z</time>
      </trkpt>
      <trkpt lat="43.144968" lon="-4.809475">
        <ele>1067.173728</ele>
        <time>2025-09-03T14:46:38.874Z</time>
      </trkpt>
      <trkpt lat="43.145232" lon="-4.809583">
        <ele>1066.850952</ele>
        <time>2025-09-03T14:47:14.434Z</time>
      </trkpt>
      <trkpt lat="43.145436" lon="-4.809610">
        <ele>1066.610841</ele>
        <time>2025-09-03T14:47:40.859Z</time>
      </trkpt>
      <trkpt lat="43.145523" lon="-4.809649">
        <ele>1066.503602</ele>
        <time>2025-09-03T14:47:52.681Z</time>
      </trkpt>
      <trkpt lat="43.145672" lon="-4.809993">
        <ele>1066.664534</ele>
        <time>2025-09-03T14:48:29.614Z</time>
      </trkpt>
      <trkpt lat="43.145843" lon="-4.810231">
        <ele>1067.635009</ele>
        <time>2025-09-03T14:49:00.297Z</time>
      </trkpt>
      <trkpt lat="43.145912" lon="-4.810385">
        <ele>1068.160068</ele>
        <time>2025-09-03T14:49:17.135Z</time>
      </trkpt>
      <trkpt lat="43.145860" lon="-4.810559">
        <ele>1068.706369</ele>
        <time>2025-09-03T14:49:35.065Z</time>
      </trkpt>
      <trkpt lat="43.145693" lon="-4.810852">
        <ele>1069.786605</ele>
        <time>2025-09-03T14:50:12.366Z</time>
      </trkpt>
      <trkpt lat="43.145387" lon="-4.811166">
        <ele>1071.308796</ele>
        <time>2025-09-03T14:51:09.118Z</time>
      </trkpt>
      <trkpt lat="43.145256" lon="-4.811410">
        <ele>1072.188960</ele>
        <time>2025-09-03T14:51:43.653Z</time>
      </trkpt>
      <trkpt lat="43.145133" lon="-4.811572">
        <ele>1072.868251</ele>
        <time>2025-09-03T14:52:10.420Z</time>
      </trkpt>
      <trkpt lat="43.144883" lon="-4.811772">
        <ele>1073.438301</ele>
        <time>2025-09-03T14:52:57.479Z</time>
      </trkpt>
      <trkpt lat="43.144699" lon="-4.811793">
        <ele>1073.438301</ele>
        <time>2025-09-03T14:53:27.387Z</time>
      </trkpt>
      <trkpt lat="43.144582" lon="-4.811777">
        <ele>1073.438301</ele>
        <time>2025-09-03T14:53:42.503Z</time>
      </trkpt>
      <trkpt lat="43.144388" lon="-4.811627">
        <ele>1073.438301</ele>
        <time>2025-09-03T14:54:11.343Z</time>
      </trkpt>
      <trkpt lat="43.144292" lon="-4.811595">
        <ele>1073.438301</ele>
        <time>2025-09-03T14:54:24.733Z</time>
      </trkpt>
      <trkpt lat="43.144280" lon="-4.811505">
        <ele>1073.438301</ele>
        <time>2025-09-03T14:54:33.350Z</time>
      </trkpt>
      <trkpt lat="43.144239" lon="-4.811535">
        <ele>1073.438301</ele>
        <time>2025-09-03T14:54:39.900Z</time>
      </trkpt>
      <trkpt lat="43.144207" lon="-4.811763">
        <ele>1073.438301</ele>
        <time>2025-09-03T14:55:03.050Z</time>
      </trkpt>
      <trkpt lat="43.143994" lon="-4.811817">
        <ele>1073.438301</ele>
        <time>2025-09-03T14:55:32.234Z</time>
      </trkpt>
      <trkpt lat="43.143885" lon="-4.811588">
        <ele>1073.438301</ele>
        <time>2025-09-03T14:55:58.273Z</time>
      </trkpt>
      <trkpt lat="43.143845" lon="-4.811627">
        <ele>1073.438301</ele>
        <time>2025-09-03T14:56:04.874Z</time>
      </trkpt>
      <trkpt lat="43.143830" lon="-4.811642">
        <ele>1073.438301</ele>
        <time>2025-09-03T14:56:07.376Z</time>
      </trkpt>
      <trkpt lat="43.143803" lon="-4.811614">
        <ele>1073.438301</ele>
        <time>2025-09-03T14:56:11.518Z</time>
      </trkpt>
      <trkpt lat="43.143678" lon="-4.811756">
        <ele>1073.438301</ele>
        <time>2025-09-03T14:56:32.132Z</time>
      </trkpt>
      <trkpt lat="43.143334" lon="-4.812153">
        <ele>1073.438301</ele>
        <time>2025-09-03T14:57:27.708Z</time>
      </trkpt>
      <trkpt lat="43.143302" lon="-4.812112">
        <ele>1073.438301</ele>
        <time>2025-09-03T14:57:32.760Z</time>
      </trkpt>
      <trkpt lat="43.143269" lon="-4.812132">
        <ele>1073.438301</ele>
        <time>2025-09-03T14:57:37.117Z</time>
      </trkpt>
      <trkpt lat="43.143247" lon="-4.812219">
        <ele>1073.438301</ele>
        <time>2025-09-03T14:57:45.130Z</time>
      </trkpt>
    </trkseg>
  </trk>
</gpx>